Tiempo atmosférico en la estación meteorológica de Albarracín, Teruel (1130 m.)



Fecha
DESCASC
Temp. máxima en grados centígrados (hora)
DESCASC
Temp. mínima en grados centígrados (hora)
DESCASC
Temp. media en grados centígrados
DESCASC
Racha de viento máxima en m/sg (hora)
DESCASC
Velocidad máxima media en intervalos de 10 minutos(hora)
DESCASC
Precipitaciones diarias en mm
DESCASC
Precipitaciones de 00:00 a 06:00 en mm
DESCASC
Precipitaciones de 06:00 a 12:00 en mm
DESCASC
Precipitaciones de 12:00 a 18:00 en mm
DESCASC
Precipitaciones de 18:00 a 24:00 en mm
DESCASC
06-07-2020 30.5 (15:50) 13.2 (07:00) 21.8 9.44 (14:50) 5.83 (18:40) 0 0 0 0 0
05-07-2020 32 (17:40) 10.7 (07:10) 21.3 8.33 (18:40) 5.28 (18:40) 0 0 0 0 0
04-07-2020 30.5 (16:30) 11.8 (05:30) 21.2 9.72 (17:10) 5 (17:10) 0 0 0 0 0
03-07-2020 27.2 (17:30) 13.6 (06:20) 20.4 7.5 (19:00) 4.72 (19:00) 0 0 0 0 0
02-07-2020 30.4 (15:50) 14.2 (00:00) 22.3 10.56 (12:10) 5.28 (12:50) 0 0 0 0 0
01-07-2020 31.9 (16:50) 16.9 (00:00) 24.4 10.28 (15:10) 5.28 (15:10) 0 0 0 0 0
30-06-2020 32.6 (14:30) 15.6 (00:00) 24.1 13.89 (19:30) 9.17 (19:30) 0 0 0 0 0
29-06-2020 32.9 (16:30) 15.1 (00:00) 24 9.72 (14:00) 4.17 (11:50) 0 0 0 0 0
28-06-2020 31.4 (18:10) 13.7 (00:00) 22.5 9.72 (15:20) 4.44 (13:00) 0 0 0 0 0
27-06-2020 29.6 (18:40) 12 (00:00) 20.8 7.5 (16:00) 5 (00:30) 0 0 0 0 0
26-06-2020 29.1 (16:00) 14.5 (00:00) 21.8 12.5 (17:40) 6.11 (00:40) 0 0 0 0 0
25-06-2020 31.4 (15:30) 13.6 (00:00) 22.5 18.61 (17:50) 8.61 (16:50) 0 0 0 0 0
24-06-2020 30.1 (12:00) 15.1 (00:00) 22.6 14.44 (14:00) 8.06 (14:00) 0 0 0 0 0
23-06-2020 31.1 (15:10) 13.7 (00:00) 22.4 11.11 (20:30) 5.83 (11:00) 0 0 0 0 0
22-06-2020 29.7 (16:10) 11.5 (00:00) 20.6 7.22 (13:50) 3.89 (20:50) 0 0 0 0 0
21-06-2020 29.4 (18:20) 9.8 (00:00) 19.6 8.06 (18:30) 4.17 (19:10) 0 0 0 0 0
20-06-2020 28.6 (17:20) 12.3 (00:00) 20.5 9.44 (14:30) 5.56 (00:30) 0 0 0 0 0
19-06-2020 26.1 (15:50) 14.1 (00:00) 20.1 10.83 (15:10) 5 (12:00) 0 0 0 0 0
18-06-2020 24.9 (18:50) 11.6 (07:20) 18.3 9.44 (15:20) 4.17 (05:40) 0 0 0 0 0
17-06-2020 19.6 (18:10) 8.5 (00:00) 14.1 5.83 (13:40) 3.33 (20:00) 0 0 0 0 0
16-06-2020 21.2 (19:00) 8.6 (00:00) 14.9 8.89 (19:00) 4.72 (11:20) 1.8 0 0 1.6 0.2
15-06-2020 25.1 (17:10) 8.1 (00:00) 16.6 11.11 (14:40) 3.89 (17:20) 0 0 0 0 0
14-06-2020 23.2 (18:10) 6.8 (00:00) 15 11.39 (11:00) 4.17 (13:00) 0 0 0 0 0
13-06-2020 20.3 (17:20) 7.2 (00:00) 13.7 10.83 (09:20) 5.28 (10:00) 0 0 0 0 0
12-06-2020 18.1 (16:30) 9.4 (00:00) 13.8 11.94 (15:50) 5.28 (14:10) 0 0 0 0 0
11-06-2020 22.1 (16:10) 9.9 (00:00) 16 11.39 (12:20) 6.11 (14:30) 0 0 0 0 0

Gráficas

Temp. máximas Temp. mínimas Temp. medias Precipitaciones Rachas de viento máximas Velocidades máximas media en intervalos de 10 minutos

Datos horarios

Fecha y hora oficial Temperatura (ºC) Velocidad del viento (km/h) Dirección del viento Racha (km/h) Dirección de racha Precipitación (mm) Presión (hPa) Tendencia (hPa) Humedad (%)
2020-07-10 23:00:00 20.6 4 Norte 14 Nordeste 0 -- -- 59
2020-07-10 22:00:00 22.4 4 Nordeste 20 Este 0 -- -- 53
2020-07-10 21:00:00 23.3 12 Noroeste 25 Norte 0 -- -- 51
2020-07-10 20:00:00 24.3 18 Norte 39 Norte 0 -- -- 48
2020-07-10 19:00:00 25.8 23 Noroeste 37 Noroeste 0 -- -- 45
2020-07-10 18:00:00 25.8 21 Noroeste 43 Noroeste 0 -- -- 44
2020-07-10 17:00:00 27.3 14 Noroeste 28 Noroeste 0 -- -- 39
2020-07-10 16:00:00 27.9 3 Sur 17 Nordeste 0 -- -- 33
2020-07-10 15:00:00 27.7 10 Noroeste 24 Nordeste 0 -- -- 34
2020-07-10 14:00:00 27 9 Norte 22 Norte 0 -- -- 35
2020-07-10 13:00:00 25.6 7 Norte 17 Norte 0 -- -- 39
2020-07-10 12:00:00 23.9 7 Norte 17 Nordeste 0 -- -- 46
2020-07-10 11:00:00 22.2 4 Oeste 9 Sudeste 0 -- -- 59
2020-07-10 10:00:00 18.1 6 Este 14 Este 0 -- -- 72
2020-07-10 09:00:00 14.6 8 Este 17 Este 0 -- -- 83
2020-07-10 08:00:00 11.3 5 Este 19 Este 0 -- -- 92
2020-07-10 07:00:00 10.4 5 Noroeste 14 Este 0 -- -- 92
2020-07-10 06:00:00 10.8 2 Sudoeste 12 Sudeste 0 -- -- 91
2020-07-10 05:00:00 11.5 3 Este 15 Este 0 -- -- 90
2020-07-10 04:00:00 12.1 7 Este 13 Este 0 -- -- 89
2020-07-10 03:00:00 12.6 3 Este 19 Sudeste 0 -- -- 88
2020-07-10 02:00:00 13.2 9 Sudeste 16 Sudeste 0 -- -- 87
2020-07-10 01:00:00 13.7 5 Sur 11 Sudoeste 0 -- -- 85
2020-07-10 00:00:00 15.1 4 Norte 16 Norte 0 -- -- 79
2020-07-09 23:00:00 15 3 Sur 28 Sur 0 -- -- 80
2020-07-09 22:00:00 15 14 Oeste 39 Oeste 1.2 -- -- 81
2020-07-09 21:00:00 17 18 Sudoeste 48 Sudoeste 0.2 -- -- 73
2020-07-09 20:00:00 22.8 13 Norte 30 Nordeste 0 -- -- 49
2020-07-09 19:00:00 25.5 11 Este 31 Este 0 -- -- 40
2020-07-09 18:00:00 26.1 8 Nordeste 17 Norte 0 -- -- 41
2020-07-09 17:00:00 26.2 10 Norte 21 Norte 0 -- -- 38
2020-07-09 16:00:00 25.1 3 Nordeste 16 Norte 0 -- -- 44
2020-07-09 15:00:00 23.4 5 Norte 15 Nordeste 0 -- -- 59
2020-07-09 14:00:00 23.2 8 Nordeste 22 Sudeste 0.2 -- -- 56
2020-07-09 13:00:00 24.3 8 Norte 15 Norte 0 -- -- 52
2020-07-09 12:00:00 23.3 6 Norte 11 Norte 0 -- -- 51
2020-07-09 11:00:00 19.4 5 Sudeste 18 Sudoeste 0.4 -- -- 72
2020-07-09 10:00:00 20.3 4 Este 15 Sudeste 0 -- -- 58
2020-07-09 09:00:00 18 10 Sudeste 18 Sudeste 0 -- -- 65
2020-07-09 08:00:00 15 4 Sudeste 15 Este 0 -- -- 74
2020-07-09 07:00:00 14.8 5 Oeste 14 Oeste 0 -- -- 71
2020-07-09 06:00:00 16.2 5 Oeste 13 Sur 0 -- -- 64
2020-07-09 05:00:00 17.4 6 Oeste 15 Sudoeste 0 -- -- 62
2020-07-09 04:00:00 19 15 Sudeste 35 Sudoeste 0 -- -- 56
2020-07-09 03:00:00 16.1 4 Noroeste 8 Sudeste 0 -- -- 72
2020-07-09 02:00:00 17.6 2 Sur 11 Sudeste 0 -- -- 66
2020-07-09 01:00:00 19.2 5 Sudoeste 21 Oeste 0 -- -- 59
2020-07-09 00:00:00 19.6 12 Noroeste 28 Sudoeste 0 -- -- 63
2020-07-08 23:00:00 20.3 16 Este 34 Este 0.4 -- -- 56
2020-07-08 22:00:00 19.1 12 Norte 55 Sudeste 0.4 -- -- 64
2020-07-08 21:00:00 23 27 Sudeste 59 Sudeste 0 -- -- 41
2020-07-08 20:00:00 23 16 Sur 44 Sudeste 0 -- -- 46
2020-07-08 19:00:00 24.1 14 Sudeste 74 Sudeste 0 -- -- 39
2020-07-08 18:00:00 25.1 30 Sudeste 55 Sudoeste 0.4 -- -- 32
2020-07-08 17:00:00 29.8 3 Sur 21 Noroeste 0 -- -- 27
2020-07-08 16:00:00 30.1 4 Sur 17 Este 0 -- -- 29
2020-07-08 15:00:00 31.3 7 Este 21 Sudeste 0 -- -- 28
2020-07-08 14:00:00 30.3 4 Norte 18 Norte 0 -- -- 31
2020-07-08 13:00:00 28.1 7 Norte 27 Norte 0 -- -- 35
2020-07-08 12:00:00 27.9 10 Norte 39 Oeste 0 -- -- 35
2020-07-08 11:00:00 27 11 Noroeste 28 Noroeste 0 -- -- 39
2020-07-08 10:00:00 25.2 6 Sur 23 Sur 0 -- -- 49
2020-07-08 09:00:00 21.6 15 Sudeste 30 Sur 0 -- -- 60
2020-07-08 08:00:00 17.6 10 Sudeste 24 Sur 0 -- -- 73
2020-07-08 07:00:00 16.6 12 Sudeste 19 Sudeste 0 -- -- 75
2020-07-08 06:00:00 16.5 8 Sudeste 13 Sudeste 0 -- -- 75
2020-07-08 05:00:00 17.1 6 Sudeste 10 Sudeste 0 -- -- 71
2020-07-08 04:00:00 18.5 4 Sudeste 14 Sur 0 -- -- 67
2020-07-08 03:00:00 20.6 5 Sudoeste 15 Oeste 0 -- -- 65
2020-07-08 02:00:00 19.1 0 Calma 6 Oeste 0 -- -- 73
2020-07-08 01:00:00 20.3 0 Calma 6 Este 0 -- -- 61
2020-07-08 00:00:00 22 4 Noroeste 10 Norte 0 -- -- 59
2020-07-07 23:00:00 24.3 0 Calma 14 Noroeste 0 -- -- 59
2020-07-07 22:00:00 26.7 5 Norte 16 Norte 0 -- -- 43
2020-07-07 21:00:00 29.5 8 Norte 21 Norte 0 -- -- 30
2020-07-07 20:00:00 31.8 9 Norte 21 Norte 0 -- -- 27
2020-07-07 19:00:00 32.6 10 Norte 26 Oeste 0 -- -- 27
2020-07-07 18:00:00 33.1 13 Noroeste 30 Oeste 0 -- -- 27
2020-07-07 17:00:00 33.2 13 Norte 35 Noroeste 0 -- -- 28
2020-07-07 16:00:00 32.4 15 Norte 31 Noroeste 0 -- -- 28
2020-07-07 15:00:00 32.2 15 Noroeste 33 Noroeste 0 -- -- 27
2020-07-07 14:00:00 31.7 13 Noroeste 32 Oeste 0 -- -- 28
2020-07-07 13:00:00 30.5 17 Norte 33 Noroeste 0 -- -- 27
2020-07-07 12:00:00 29.8 12 Noroeste 33 Noroeste 0 -- -- 29
2020-07-07 11:00:00 28.2 5 Nordeste 13 Noroeste 0 -- -- 33
2020-07-07 10:00:00 24.2 7 Este 14 Sudeste 0 -- -- 51
2020-07-07 09:00:00 19.3 8 Este 12 Este 0 -- -- 61
2020-07-07 08:00:00 15.5 3 Nordeste 15 Sudeste 0 -- -- 72
2020-07-07 07:00:00 14.8 11 Sudeste 23 Sudeste 0 -- -- 71
2020-07-07 06:00:00 14.9 12 Sudeste 19 Sudeste 0 -- -- 70
2020-07-07 05:00:00 15.3 6 Sudeste 15 Sudeste 0 -- -- 69
2020-07-07 04:00:00 16 9 Sudeste 16 Sudeste 0 -- -- 68
2020-07-07 03:00:00 16.3 2 Sudeste 6 Sudeste 0 -- -- 60
2020-07-07 02:00:00 17.3 0 Calma 6 Sudoeste 0 -- -- 56
2020-07-07 01:00:00 18.4 2 Oeste 9 Sudeste 0 -- -- 53
2020-07-07 00:00:00 19.7 2 Este 10 Norte 0 -- -- 52
2020-07-06 23:00:00 20.9 5 Nordeste 16 Noroeste 0 -- -- 54
2020-07-06 22:00:00 22.7 11 Noroeste 18 Noroeste 0 -- -- 50
2020-07-06 21:00:00 25.1 11 Noroeste 26 Noroeste 0 -- -- 45
2020-07-06 20:00:00 26.6 14 Norte 33 Noroeste 0 -- -- 43
2020-07-06 19:00:00 28.2 19 Noroeste 32 Noroeste 0 -- -- 41
2020-07-06 18:00:00 29.3 15 Norte 31 Noroeste 0 -- -- 39
2020-07-06 17:00:00 30.4 13 Norte 29 Noroeste 0 -- -- 36
2020-07-06 16:00:00 30.4 14 Norte 27 Noroeste 0 -- -- 35
2020-07-06 15:00:00 29.7 13 Norte 34 Norte 0 -- -- 37
2020-07-06 14:00:00 30 8 Sudeste 22 Noroeste 0 -- -- 36
2020-07-06 13:00:00 28.9 8 Nordeste 18 Nordeste 0 -- -- 38
2020-07-06 12:00:00 27.6 5 Nordeste 16 Nordeste 0 -- -- 40
2020-07-06 11:00:00 25.8 4 Nordeste 10 Nordeste 0 -- -- 43
2020-07-06 10:00:00 23 4 Sudeste 9 Sudeste 0 -- -- 50
2020-07-06 09:00:00 18.6 8 Este 13 Este 0 -- -- 55
2020-07-06 08:00:00 14.4 0 Calma 8 Sudeste 0 -- -- 66
2020-07-06 07:00:00 13.2 2 Noroeste 11 Este 0 -- -- 69
2020-07-06 06:00:00 13.9 0 Calma 9 Este 0 -- -- 66
2020-07-06 05:00:00 14.5 3 Sudeste 6 Sur 0 -- -- 63
2020-07-06 04:00:00 15.3 0 Calma 5 Noroeste 0 -- -- 61
2020-07-06 03:00:00 16.4 0 Calma 5 Oeste 0 -- -- 58
2020-07-06 02:00:00 17.6 2 Noroeste 4 Noroeste 0 -- -- 56
2020-07-06 01:00:00 19 0 Calma 4 Sudoeste 0 -- -- 48
2020-07-06 00:00:00 20.6 0 Calma 9 Noroeste 0 -- -- 44
2020-07-05 23:00:00 22.1 6 Noroeste 13 Noroeste 0 -- -- 42
2020-07-05 22:00:00 25.9 5 Norte 22 Nordeste 0 -- -- 35
2020-07-05 21:00:00 28.5 11 Norte 21 Norte 0 -- -- 30
2020-07-05 20:00:00 30.3 12 Norte 23 Noroeste 0 -- -- 23
2020-07-05 19:00:00 31.5 11 Noroeste 30 Norte 0 -- -- 22
2020-07-05 18:00:00 31.9 7 Norte 24 Norte 0 -- -- 21
2020-07-05 17:00:00 31.4 9 Norte 25 Norte 0 -- -- 22
2020-07-05 16:00:00 31.1 5 Noroeste 22 Nordeste 0 -- -- 22
2020-07-05 15:00:00 30.4 6 Norte 27 Norte 0 -- -- 24
2020-07-05 14:00:00 29.7 12 Noroeste 23 Norte 0 -- -- 25
2020-07-05 13:00:00 29.2 6 Nordeste 19 Norte 0 -- -- 25
2020-07-05 12:00:00 27.7 8 Norte 15 Norte 0 -- -- 26
2020-07-05 11:00:00 25.5 3 Este 12 Este 0 -- -- 32
2020-07-05 10:00:00 20.9 12 Este 20 Este 0 -- -- 38
2020-07-05 09:00:00 16.4 11 Este 20 Este 0 -- -- 47
2020-07-05 08:00:00 12 12 Sudeste 23 Sudeste 0 -- -- 56
2020-07-05 07:00:00 10.8 9 Sudeste 21 Este 0 -- -- 57
2020-07-05 06:00:00 11.5 8 Sudeste 17 Sudeste 0 -- -- 54
2020-07-05 05:00:00 11.8 4 Sudeste 12 Este 0 -- -- 54
2020-07-05 04:00:00 12.5 5 Sudeste 14 Sudeste 0 -- -- 51
2020-07-05 03:00:00 12.7 2 Noroeste 4 Sur 0 -- -- 50
2020-07-05 02:00:00 14.1 0 Calma 4 Oeste 0 -- -- 47
2020-07-05 01:00:00 15.6 0 Calma 8 Sur 0 -- -- 43
2020-07-05 00:00:00 17.6 2 Noroeste 6 Noroeste 0 -- -- 38
2020-07-04 23:00:00 19.8 4 Norte 14 Norte 0 -- -- 34
2020-07-04 22:00:00 22.2 4 Nordeste 17 Noroeste 0 -- -- 31
2020-07-04 21:00:00 25.7 12 Noroeste 22 Norte 0 -- -- 23
2020-07-04 20:00:00 27.5 10 Norte 28 Norte 0 -- -- 20
2020-07-04 19:00:00 28.5 16 Norte 27 Norte 0 -- -- 18
2020-07-04 18:00:00 29.1 13 Norte 35 Nordeste 0 -- -- 19
2020-07-04 17:00:00 29.5 17 Nordeste 32 Nordeste 0 -- -- 21
2020-07-04 16:00:00 29.9 12 Norte 26 Norte 0 -- -- 20
2020-07-04 15:00:00 28.4 10 Norte 22 Norte 0 -- -- 24
2020-07-04 14:00:00 28.1 6 Sudoeste 19 Norte 0 -- -- 29
2020-07-04 13:00:00 26.8 10 Norte 17 Norte 0 -- -- 31
2020-07-04 12:00:00 24.9 5 Este 16 Nordeste 0 -- -- 39
2020-07-04 11:00:00 23.1 5 Norte 11 Nordeste 0 -- -- 46
2020-07-04 10:00:00 20.2 2 Nordeste 7 Este 0 -- -- 57
2020-07-04 09:00:00 17.3 4 Este 14 Sudeste 0 -- -- 71
2020-07-04 08:00:00 13.3 7 Este 18 Este 0 -- -- 79
2020-07-04 07:00:00 12.2 10 Sudeste 23 Sudeste 0 -- -- 78
2020-07-04 06:00:00 11.9 7 Este 14 Sudeste 0 -- -- 77
2020-07-04 05:00:00 12.1 2 Oeste 9 Sudeste 0 -- -- 76
2020-07-04 04:00:00 13.6 7 Sudeste 12 Sudeste 0 -- -- 69
2020-07-04 03:00:00 13.9 0 Calma 14 Sudeste 0 -- -- 68
2020-07-04 02:00:00 14.6 2 Sur 9 Oeste 0 -- -- 65
2020-07-04 01:00:00 15.3 0 Calma 7 Noroeste 0 -- -- 62
2020-07-04 00:00:00 16.4 0 Calma 8 Noroeste 0 -- -- 58
2020-07-03 23:00:00 18.4 5 Noroeste 13 Noroeste 0 -- -- 53
2020-07-03 22:00:00 20.7 5 Norte 19 Noroeste 0 -- -- 47
2020-07-03 21:00:00 23 14 Noroeste 27 Noroeste 0 -- -- 43
2020-07-03 20:00:00 24.9 15 Noroeste 27 Noroeste 0 -- -- 39
2020-07-03 19:00:00 26.1 17 Noroeste 27 Noroeste 0 -- -- 37
2020-07-03 18:00:00 26.4 5 Norte 21 Noroeste 0 -- -- 37
2020-07-03 17:00:00 26.7 8 Nordeste 22 Norte 0 -- -- 37
2020-07-03 16:00:00 26.3 10 Norte 21 Noroeste 0 -- -- 39
2020-07-03 15:00:00 24.6 9 Norte 21 Norte 0 -- -- 42
2020-07-03 14:00:00 23.4 8 Norte 22 Norte 0 -- -- 45
2020-07-03 13:00:00 21.8 7 Noroeste 25 Oeste 0 -- -- 50
2020-07-03 12:00:00 19.8 5 Nordeste 14 Norte 0 -- -- 54
2020-07-03 11:00:00 17.3 12 Norte 19 Noroeste 0 -- -- 61
2020-07-03 10:00:00 15.7 8 Norte 16 Norte 0 -- -- 65
2020-07-03 09:00:00 14.4 8 Norte 18 Norte 0 -- -- 69
2020-07-03 08:00:00 13.8 9 Norte 17 Norte 0 -- -- 73
2020-07-03 07:00:00 13.7 6 Norte 15 Nordeste 0 -- -- 74
2020-07-03 06:00:00 13.9 9 Norte 18 Norte 0 -- -- 73
2020-07-03 05:00:00 14 6 Norte 17 Norte 0 -- -- 75
2020-07-03 04:00:00 13.9 8 Norte 19 Norte 0 -- -- 76
2020-07-03 03:00:00 13.7 6 Norte 23 Noroeste 0 -- -- 79
2020-07-03 02:00:00 14.6 7 Norte 17 Norte 0 -- -- 78
2020-07-03 01:00:00 15.8 5 Norte 14 Nordeste 0 -- -- 74
2020-07-03 00:00:00 16.9 10 Norte 21 Nordeste 0 -- -- 70
2020-07-02 23:00:00 18.8 7 Norte 25 Nordeste 0 -- -- 64
2020-07-02 22:00:00 22.5 11 Norte 28 Norte 0 -- -- 50
2020-07-02 21:00:00 26.7 8 Oeste 22 Oeste 0 -- -- 25
2020-07-02 20:00:00 28.4 10 Oeste 30 Sudoeste 0 -- -- 24
2020-07-02 19:00:00 29.7 9 Oeste 35 Noroeste 0 -- -- 21
2020-07-02 18:00:00 30.3 11 Oeste 30 Sur 0 -- -- 22
2020-07-02 17:00:00 29.3 15 Sudoeste 28 Sudoeste 0 -- -- 25
2020-07-02 16:00:00 30.3 14 Sur 32 Sudoeste 0 -- -- 23
2020-07-02 15:00:00 29.5 14 Sur 32 Sudeste 0 -- -- 25
2020-07-02 14:00:00 29.3 13 Sudoeste 36 Sur 0 -- -- 27
2020-07-02 13:00:00 29.1 18 Sudoeste 38 Sudoeste 0 -- -- 27
2020-07-02 12:00:00 28.3 16 Sudoeste 30 Sudoeste 0 -- -- 27
2020-07-02 11:00:00 27.7 11 Sudoeste 29 Oeste 0 -- -- 30
2020-07-02 10:00:00 23.8 9 Este 18 Sudeste 0 -- -- 40
2020-07-02 09:00:00 19.8 10 Sudeste 19 Este 0 -- -- 47
2020-07-02 08:00:00 15.9 10 Sudeste 23 Sudeste 0 -- -- 53
2020-07-02 07:00:00 14.4 4 Sudeste 12 Sudeste 0 -- -- 55
2020-07-02 06:00:00 15.1 3 Sur 12 Sudeste 0 -- -- 52
2020-07-02 05:00:00 16.1 7 Sur 11 Sudeste 0 -- -- 48
2020-07-02 04:00:00 17.1 6 Sudeste 16 Este 0 -- -- 45
2020-07-02 03:00:00 18.6 7 Sudeste 21 Sudoeste 0 -- -- 41
2020-07-02 02:00:00 20.8 13 Sudoeste 19 Sudoeste 0 -- -- 36
2020-07-02 01:00:00 20.9 10 Sudoeste 21 Sudoeste 0 -- -- 35
2020-07-02 00:00:00 22.2 15 Sudoeste 25 Sudoeste 0 -- -- 32
2020-07-01 23:00:00 23.8 12 Sudoeste 14 Sudoeste 0 -- -- 30
2020-07-01 22:00:00 25 5 Oeste 15 Sudoeste 0 -- -- 30
2020-07-01 21:00:00 28.8 6 Sudoeste 23 Sudoeste 0 -- -- 26
2020-07-01 20:00:00 30.4 9 Sur 31 Oeste 0 -- -- 24
2020-07-01 19:00:00 31.3 12 Sudoeste 36 Oeste 0 -- -- 22
2020-07-01 18:00:00 31.5 11 Sudoeste 28 Oeste 0 -- -- 23
2020-07-01 17:00:00 31.7 15 Oeste 35 Sudoeste 0 -- -- 23
2020-07-01 16:00:00 31.4 15 Sudoeste 37 Oeste 0 -- -- 22
2020-07-01 15:00:00 30.4 17 Oeste 36 Sur 0 -- -- 23
2020-07-01 14:00:00 30.1 13 Oeste 35 Oeste 0 -- -- 23
2020-07-01 13:00:00 29.5 18 Oeste 31 Oeste 0 -- -- 22
2020-07-01 12:00:00 29 13 Oeste 33 Sudoeste 0 -- -- 31
2020-07-01 11:00:00 27.9 14 Oeste 31 Oeste 0 -- -- 33
2020-07-01 10:00:00 26.4 5 Sudeste 19 Sur 0 -- -- 43
2020-07-01 09:00:00 23 10 Sur 21 Sudoeste 0 -- -- 49
2020-07-01 08:00:00 17.8 9 Este 23 Este 0 -- -- 66
2020-07-01 07:00:00 17 11 Sudeste 21 Sudeste 0 -- -- 68
2020-07-01 06:00:00 19.2 13 Sur 21 Sudoeste 0 -- -- 58
2020-07-01 05:00:00 18.8 10 Sudoeste 21 Sudoeste 0 -- -- 65
2020-07-01 04:00:00 19.3 7 Sudoeste 20 Sudoeste 0 -- -- 64
2020-07-01 03:00:00 20.1 12 Sudoeste 23 Sudoeste 0 -- -- 63
2020-07-01 02:00:00 21.2 14 Sudoeste 25 Sur 0 -- -- 59
2020-07-01 01:00:00 22 13 Sudoeste 25 Sur 0 -- -- 58
2020-07-01 00:00:00 22.4 13 Sudoeste 30 Sudoeste 0 -- -- 59
2020-06-30 23:00:00 23.8 21 Sudoeste 31 Sudoeste 0 -- -- 54
2020-06-30 22:00:00 25.2 17 Sur 29 Sudeste 0 -- -- 53
2020-06-30 21:00:00 27.1 16 Sudeste 49 Sudeste 0 -- -- 48
2020-06-30 20:00:00 28.8 28 Sudeste 50 Sudeste 0 -- -- 43
2020-06-30 19:00:00 30.5 22 Sudeste 42 Sudeste 0 -- -- 40
2020-06-30 18:00:00 32.3 16 Sur 43 Sudeste 0 -- -- 26
2020-06-30 17:00:00 32.1 17 Sur 37 Sudeste 0 -- -- 29
2020-06-30 16:00:00 32.4 22 Sudeste 44 Sudeste 0 -- -- 28
2020-06-30 15:00:00 32.3 21 Sudeste 45 Sudeste 0 -- -- 27
2020-06-30 14:00:00 32.3 18 Sudeste 40 Sudeste 0 -- -- 29
2020-06-30 13:00:00 32 19 Sudeste 36 Sudeste 0 -- -- 28
2020-06-30 12:00:00 31 20 Sudeste 34 Sudeste 0 -- -- 29
2020-06-30 11:00:00 28.5 11 Sudeste 20 Sudeste 0 -- -- 35
2020-06-30 10:00:00 25.5 10 Sur 23 Sur 0 -- -- 39
2020-06-30 09:00:00 22.3 16 Sur 24 Sudoeste 0 -- -- 47
2020-06-30 08:00:00 19.7 15 Sur 24 Sur 0 -- -- 55
2020-06-30 07:00:00 15.6 3 Sudeste 13 Sudeste 0 -- -- 78
2020-06-30 06:00:00 16 5 Sudeste 14 Sudeste 0 -- -- 80
2020-06-30 05:00:00 16.2 7 Sur 14 Sur 0 -- -- 82
2020-06-30 04:00:00 16.7 3 Sur 6 Sudeste 0 -- -- 78
2020-06-30 03:00:00 17.1 0 Calma 4 Sur 0 -- -- 80
2020-06-30 02:00:00 18 0 Calma 6 Oeste 0 -- -- 83
2020-06-30 01:00:00 19.2 3 Noroeste 6 Norte 0 -- -- 81
2020-06-30 00:00:00 20.5 5 Noroeste 12 Noroeste 0 -- -- 78
2020-06-29 23:00:00 22 9 Noroeste 17 Norte 0 -- -- 74
2020-06-29 22:00:00 23.7 4 Norte 22 Norte 0 -- -- 66
2020-06-29 21:00:00 27.1 12 Norte 23 Nordeste 0 -- -- 55
2020-06-29 20:00:00 31.5 9 Sudoeste 21 Oeste 0 -- -- 25
2020-06-29 19:00:00 32.4 12 Oeste 26 Oeste 0 -- -- 26
2020-06-29 18:00:00 32.3 4 Sur 27 Sur 0 -- -- 27
2020-06-29 17:00:00 32.7 8 Sudoeste 28 Oeste 0 -- -- 24
2020-06-29 16:00:00 32.5 9 Sudoeste 28 Sudoeste 0 -- -- 26
2020-06-29 15:00:00 32.2 10 Sudoeste 33 Sudeste 0 -- -- 27
2020-06-29 14:00:00 31.6 14 Sudoeste 35 Sur 0 -- -- 28
2020-06-29 13:00:00 31.3 12 Sudoeste 26 Oeste 0 -- -- 28
2020-06-29 12:00:00 30.2 14 Sur 27 Sudeste 0 -- -- 31
2020-06-29 11:00:00 27 11 Norte 21 Norte 0 -- -- 50
2020-06-29 10:00:00 23.8 7 Este 17 Sudeste 0 -- -- 55
2020-06-29 09:00:00 19.7 11 Este 21 Sudeste 0 -- -- 63
2020-06-29 08:00:00 16.2 13 Sudeste 21 Sudeste 0 -- -- 73
2020-06-29 07:00:00 15.2 9 Sudeste 21 Sudeste 0 -- -- 74
2020-06-29 06:00:00 15.4 9 Sudeste 20 Sudeste 0 -- -- 74
2020-06-29 05:00:00 15.9 2 Sudeste 10 Sudeste 0 -- -- 74
2020-06-29 04:00:00 16.7 2 Oeste 13 Sudeste 0 -- -- 74
2020-06-29 03:00:00 17.6 6 Sudeste 13 Este 0 -- -- 73
2020-06-29 02:00:00 18 0 Calma 6 Sudeste 0 -- -- 77
2020-06-29 01:00:00 18.7 5 Sudoeste 7 Sur 0 -- -- 76
2020-06-29 00:00:00 20 4 Noroeste 11 Noroeste 0 -- -- 72
2020-06-28 23:00:00 22.1 7 Noroeste 14 Nordeste 0 -- -- 66
2020-06-28 22:00:00 25 7 Nordeste 20 Norte 0 -- -- 57
2020-06-28 21:00:00 27.7 7 Norte 22 Norte 0 -- -- 48
2020-06-28 20:00:00 30.3 8 Sudoeste 22 Sudoeste 0 -- -- 29
2020-06-28 19:00:00 30.2 10 Oeste 27 Oeste 0 -- -- 29
2020-06-28 18:00:00 30.7 9 Sudoeste 24 Oeste 0 -- -- 27
2020-06-28 17:00:00 31 10 Oeste 24 Oeste 0 -- -- 28
2020-06-28 16:00:00 31.3 8 Sur 35 Oeste 0 -- -- 27
2020-06-28 15:00:00 30.3 9 Sudeste 24 Sudoeste 0 -- -- 30
2020-06-28 14:00:00 29.3 10 Sudoeste 28 Oeste 0 -- -- 31
2020-06-28 13:00:00 28.4 16 Oeste 31 Oeste 0 -- -- 31
2020-06-28 12:00:00 28.3 14 Sur 32 Sur 0 -- -- 33
2020-06-28 11:00:00 26.8 8 Este 20 Sudeste 0 -- -- 39
2020-06-28 10:00:00 22.7 6 Este 17 Este 0 -- -- 49
2020-06-28 09:00:00 18.4 12 Este 18 Este 0 -- -- 58
2020-06-28 08:00:00 14.8 11 Sudeste 19 Sudeste 0 -- -- 67
2020-06-28 07:00:00 13.7 10 Sudeste 17 Sudeste 0 -- -- 69
2020-06-28 06:00:00 14.5 8 Sudeste 14 Este 0 -- -- 67
2020-06-28 05:00:00 15.5 8 Este 16 Sudeste 0 -- -- 64
2020-06-28 04:00:00 16 4 Sudeste 10 Este 0 -- -- 64
2020-06-28 03:00:00 16 5 Sudeste 9 Sudeste 0 -- -- 69
2020-06-28 02:00:00 16.9 0 Calma 5 Sur 0 -- -- 69
2020-06-28 01:00:00 18.1 2 Sur 9 Noroeste 0 -- -- 66
2020-06-28 00:00:00 20 5 Norte 12 Norte 0 -- -- 60
2020-06-27 23:00:00 21.6 4 Oeste 10 Noroeste 0 -- -- 55
2020-06-27 22:00:00 24 6 Sur 18 Norte 0 -- -- 49
2020-06-27 21:00:00 26.5 6 Norte 15 Norte 0 -- -- 41
2020-06-27 20:00:00 27.4 5 Norte 16 Sudeste 0 -- -- 34
2020-06-27 19:00:00 28.7 8 Norte 17 Norte 0 -- -- 33
2020-06-27 18:00:00 28.5 12 Norte 21 Norte 0 -- -- 33
2020-06-27 17:00:00 28.9 10 Norte 22 Nordeste 0 -- -- 32
2020-06-27 16:00:00 28.1 14 Norte 27 Norte 0 -- -- 33
2020-06-27 15:00:00 27.5 11 Norte 26 Norte 0 -- -- 34
2020-06-27 14:00:00 28.1 10 Este 23 Sudeste 0 -- -- 33
2020-06-27 13:00:00 25.8 8 Noroeste 17 Este 0 -- -- 34
2020-06-27 12:00:00 24.2 5 Nordeste 16 Sudeste 0 -- -- 38
2020-06-27 11:00:00 22.9 6 Nordeste 14 Nordeste 0 -- -- 42
2020-06-27 10:00:00 20.8 3 Sudeste 15 Sudeste 0 -- -- 48
2020-06-27 09:00:00 17.4 11 Este 15 Este 0 -- -- 55
2020-06-27 08:00:00 13 6 Sudeste 15 Sudeste 0 -- -- 71
2020-06-27 07:00:00 12.1 0 Calma 7 Oeste 0 -- -- 73
2020-06-27 06:00:00 12.8 2 Sur 9 Sudeste 0 -- -- 71
2020-06-27 05:00:00 14 8 Sudeste 12 Sudeste 0 -- -- 69
2020-06-27 04:00:00 15.5 8 Sudeste 14 Este 0 -- -- 66
2020-06-27 03:00:00 16.4 9 Sudoeste 19 Sur 0 -- -- 63
2020-06-27 02:00:00 17.7 12 Sudoeste 21 Sur 0 -- -- 60
2020-06-27 01:00:00 19.2 17 Sur 26 Sudoeste 0 -- -- 56
2020-06-27 00:00:00 20 15 Sur 27 Sudoeste 0 -- -- 54
2020-06-26 23:00:00 21.5 15 Sur 23 Sur 0 -- -- 50
2020-06-26 22:00:00 22.7 12 Sur 21 Sudeste 0 -- -- 48
2020-06-26 21:00:00 24.4 12 Sur 27 Sudeste 0 -- -- 43
2020-06-26 20:00:00 26.9 12 Sur 26 Sur 0 -- -- 34
2020-06-26 19:00:00 27.9 12 Sur 33 Sur 0 -- -- 32
2020-06-26 18:00:00 28.5 18 Sur 45 Sudeste 0 -- -- 28
2020-06-26 17:00:00 28.4 14 Sur 37 Sudeste 0 -- -- 33
2020-06-26 16:00:00 29.1 17 Sudeste 39 Sur 0 -- -- 33
2020-06-26 15:00:00 28.4 15 Sudeste 40 Sudeste 0 -- -- 36
2020-06-26 14:00:00 28 14 Sudeste 34 Sudeste 0 -- -- 38
2020-06-26 13:00:00 26.9 18 Sudeste 32 Sur 0 -- -- 38
2020-06-26 12:00:00 25.6 16 Sur 32 Sur 0 -- -- 39
2020-06-26 11:00:00 24.8 10 Sudeste 25 Sudeste 0 -- -- 41
2020-06-26 10:00:00 23.3 7 Sudeste 21 Sudeste 0 -- -- 43
2020-06-26 09:00:00 20.2 4 Este 21 Sudoeste 0 -- -- 47
2020-06-26 08:00:00 17.4 6 Sudeste 21 Sur 0 -- -- 52
2020-06-26 07:00:00 16.4 10 Sudoeste 18 Sudoeste 0 -- -- 52
2020-06-26 06:00:00 15.9 7 Sudoeste 17 Sudoeste 0 -- -- 54
2020-06-26 05:00:00 14.8 3 Sur 16 Sudoeste 0 -- -- 58
2020-06-26 04:00:00 14.6 2 Sur 12 Oeste 0 -- -- 56
2020-06-26 03:00:00 15.5 6 Noroeste 12 Noroeste 0 -- -- 53
2020-06-26 02:00:00 17.9 2 Noroeste 18 Sudoeste 0 -- -- 48
2020-06-26 01:00:00 20 9 Sur 35 Sudoeste 0 -- -- 41
2020-06-26 00:00:00 21 17 Sur 40 Sudoeste 0 -- -- 43
2020-06-25 23:00:00 21.3 14 Sudoeste 25 Sudoeste 0 -- -- 45
2020-06-25 22:00:00 23.1 10 Sur 36 Sudeste 0 -- -- 42
2020-06-25 21:00:00 24.8 18 Sudeste 42 Sudeste 0 -- -- 40
2020-06-25 20:00:00 27.2 22 Sudeste 38 Sudeste 0 -- -- 36
2020-06-25 19:00:00 28.8 24 Sudeste 49 Sudeste 0 -- -- 33
2020-06-25 18:00:00 29.5 24 Sudeste 67 Sudeste 0 -- -- 32
2020-06-25 17:00:00 30.2 23 Sudeste 51 Sudeste 0 -- -- 30
2020-06-25 16:00:00 30.7 14 Sudeste 32 Sudeste 0 -- -- 30
2020-06-25 15:00:00 30.7 16 Sudeste 34 Sur 0 -- -- 27
2020-06-25 14:00:00 30.6 13 Sudeste 37 Sur 0 -- -- 30
2020-06-25 13:00:00 29.8 12 Sur 28 Sudeste 0 -- -- 29
2020-06-25 12:00:00 28.2 12 Sudeste 24 Sur 0 -- -- 30
2020-06-25 11:00:00 26.3 7 Este 13 Sudeste 0 -- -- 44
2020-06-25 10:00:00 22.8 8 Este 14 Sudeste 0 -- -- 53
2020-06-25 09:00:00 18.1 6 Sudeste 13 Sudeste 0 -- -- 65
2020-06-25 08:00:00 14.3 4 Nordeste 21 Sudeste 0 -- -- 75
2020-06-25 07:00:00 13.8 14 Sudeste 26 Sudeste 0 -- -- 76
2020-06-25 06:00:00 14.1 17 Sur 23 Sudeste 0 -- -- 74
2020-06-25 05:00:00 15 12 Sudeste 22 Sudeste 0 -- -- 73
2020-06-25 04:00:00 15 9 Sudeste 16 Sudeste 0 -- -- 72
2020-06-25 03:00:00 15.3 3 Sudeste 12 Sudeste 0 -- -- 71
2020-06-25 02:00:00 15.7 0 Calma 9 Sur 0 -- -- 70
2020-06-25 01:00:00 17.8 7 Noroeste 19 Sudeste 0 -- -- 65
2020-06-25 00:00:00 18.3 6 Sudeste 15 Sudeste 0 -- -- 62
2020-06-24 23:00:00 18.9 0 Calma 6 Sur 0 -- -- 59
2020-06-24 22:00:00 20.2 2 Sudoeste 5 Noroeste 0 -- -- 55
2020-06-24 21:00:00 23 2 Sur 8 Oeste 0 -- -- 49
2020-06-24 20:00:00 23.2 4 Este 13 Norte 0 -- -- 47
2020-06-24 19:00:00 22.6 6 Sur 21 Norte 0 -- -- 50
2020-06-24 18:00:00 22.5 12 Nordeste 28 Nordeste 0 -- -- 52
2020-06-24 17:00:00 25.7 12 Norte 32 Noroeste 0 -- -- 44
2020-06-24 16:00:00 26.3 11 Noroeste 37 Noroeste 0 -- -- 34
2020-06-24 15:00:00 22.9 17 Noroeste 39 Noroeste 0 -- -- 44
2020-06-24 14:00:00 23.5 29 Noroeste 52 Noroeste 0 -- -- 44
2020-06-24 13:00:00 29 3 Noroeste 18 Oeste 0 -- -- 28
2020-06-24 12:00:00 30.1 5 Nordeste 14 Sudeste 0 -- -- 30
2020-06-24 11:00:00 27.1 8 Sudeste 17 Sudeste 0 -- -- 43
2020-06-24 10:00:00 23 10 Sudeste 14 Este 0 -- -- 53
2020-06-24 09:00:00 19.2 2 Sudeste 10 Este 0 -- -- 67
2020-06-24 08:00:00 16 5 Sudeste 17 Sudoeste 0 -- -- 76
2020-06-24 07:00:00 16.2 12 Sur 24 Sudoeste 0 -- -- 74
2020-06-24 06:00:00 15.2 12 Sudeste 19 Sur 0 -- -- 80
2020-06-24 05:00:00 15.6 6 Este 16 Sudeste 0 -- -- 80
2020-06-24 04:00:00 16.5 8 Sudeste 13 Sudoeste 0 -- -- 76
2020-06-24 03:00:00 17.3 3 Sur 11 Sudoeste 0 -- -- 73
2020-06-24 02:00:00 18.3 2 Sudeste 19 Sur 0 -- -- 70
2020-06-24 01:00:00 20.1 8 Sur 22 Sur 0 -- -- 65
2020-06-24 00:00:00 20.8 13 Sur 23 Sur 0 -- -- 63
2020-06-23 23:00:00 20.1 3 Sur 8 Oeste 0 -- -- 66
2020-06-23 22:00:00 22.1 2 Sudoeste 11 Este 0 -- -- 60
2020-06-23 21:00:00 23.9 10 Nordeste 40 Sudeste 0 -- -- 55
2020-06-23 20:00:00 27.9 10 Nordeste 35 Nordeste 0 -- -- 44
2020-06-23 19:00:00 30.1 4 Sudeste 16 Norte 0 -- -- 28
2020-06-23 18:00:00 30.1 9 Nordeste 19 Este 0 -- -- 30
2020-06-23 17:00:00 30.2 10 Nordeste 24 Norte 0 -- -- 29
2020-06-23 16:00:00 30.5 12 Noroeste 27 Sur 0 -- -- 29
2020-06-23 15:00:00 30.4 11 Sudeste 26 Sudeste 0 -- -- 29
2020-06-23 14:00:00 30.2 15 Sudeste 32 Sudeste 0 -- -- 29
2020-06-23 13:00:00 29.1 13 Sudeste 31 Sudeste 0 -- -- 31
2020-06-23 12:00:00 27.7 16 Sudeste 30 Sur 0 -- -- 36
2020-06-23 11:00:00 25.6 21 Sudeste 32 Sudeste 0 -- -- 38
2020-06-23 10:00:00 22.8 8 Este 17 Este 0 -- -- 54
2020-06-23 09:00:00 18.9 9 Sudeste 18 Sudeste 0 -- -- 68
2020-06-23 08:00:00 15.1 4 Sudeste 25 Sudeste 0 -- -- 79
2020-06-23 07:00:00 13.7 13 Sudeste 22 Sudeste 0 -- -- 83
2020-06-23 06:00:00 14.4 9 Este 21 Sudeste 0 -- -- 81
2020-06-23 05:00:00 15.5 12 Sudeste 20 Sudeste 0 -- -- 78
2020-06-23 04:00:00 15.9 4 Sudeste 11 Sur 0 -- -- 77
2020-06-23 03:00:00 16.4 3 Sur 14 Sur 0 -- -- 75
2020-06-23 02:00:00 17.4 3 Sudeste 6 Sudeste 0 -- -- 72
2020-06-23 01:00:00 17.9 0 Calma 8 Oeste 0 -- -- 72
2020-06-23 00:00:00 19.5 0 Calma 13 Norte 0 -- -- 67
2020-06-22 23:00:00 21.3 6 Noroeste 13 Noroeste 0 -- -- 61
2020-06-22 22:00:00 23.7 7 Este 23 Nordeste 0 -- -- 53
2020-06-22 21:00:00 26.1 11 Este 25 Sudeste 0 -- -- 44
2020-06-22 20:00:00 28.6 9 Noroeste 22 Noroeste 0 -- -- 33
2020-06-22 19:00:00 29.4 5 Norte 14 Norte 0 -- -- 31
2020-06-22 18:00:00 28.6 12 Noroeste 22 Noroeste 0 -- -- 34
2020-06-22 17:00:00 29.1 9 Noroeste 22 Nordeste 0 -- -- 35
2020-06-22 16:00:00 29.1 9 Norte 21 Nordeste 0 -- -- 34
2020-06-22 15:00:00 28.8 9 Norte 23 Norte 0 -- -- 35
2020-06-22 14:00:00 27.8 9 Norte 26 Norte 0 -- -- 38
2020-06-22 13:00:00 26.8 9 Norte 18 Nordeste 0 -- -- 37
2020-06-22 12:00:00 25.5 8 Este 14 Sudeste 0 -- -- 41
2020-06-22 11:00:00 22.4 5 Este 9 Este 0 -- -- 46
2020-06-22 10:00:00 20 4 Nordeste 9 Sudeste 0 -- -- 56
2020-06-22 09:00:00 16.6 7 Sudeste 12 Este 0 -- -- 64
2020-06-22 08:00:00 12.9 5 Sudeste 10 Sudeste 0 -- -- 73
2020-06-22 07:00:00 11.6 0 Calma 9 Oeste 0 -- -- 77
2020-06-22 06:00:00 12.4 0 Calma 9 Oeste 0 -- -- 72
2020-06-22 05:00:00 13.8 3 Sudoeste 6 Oeste 0 -- -- 67
2020-06-22 04:00:00 15.1 0 Calma 12 Oeste 0 -- -- 62
2020-06-22 03:00:00 15.8 4 Sur 21 Norte 0 -- -- 59
2020-06-22 02:00:00 16.9 8 Norte 21 Norte 0 -- -- 56
2020-06-22 01:00:00 17.8 8 Norte 26 Noroeste 0 -- -- 52
2020-06-22 00:00:00 19 15 Noroeste 29 Noroeste 0 -- -- 52
2020-06-21 23:00:00 20.6 9 Norte 22 Noroeste 0 -- -- 49
2020-06-21 22:00:00 22.9 12 Noroeste 21 Noroeste 0 -- -- 44
2020-06-21 21:00:00 26.1 13 Noroeste 22 Noroeste 0 -- -- 33
2020-06-21 20:00:00 28.3 10 Norte 28 Noroeste 0 -- -- 28
2020-06-21 19:00:00 29.2 12 Norte 29 Noroeste 0 -- -- 27
2020-06-21 18:00:00 29 12 Noroeste 28 Noroeste 0 -- -- 28
2020-06-21 17:00:00 28.3 4 Sudoeste 21 Norte 0 -- -- 31
2020-06-21 16:00:00 28.7 6 Este 17 Norte 0 -- -- 29
2020-06-21 15:00:00 28.8 9 Sudeste 21 Nordeste 0 -- -- 30
2020-06-21 14:00:00 27.9 6 Noroeste 19 Nordeste 0 -- -- 34
2020-06-21 13:00:00 26.5 6 Norte 20 Nordeste 0 -- -- 37
2020-06-21 12:00:00 25.5 8 Norte 17 Norte 0 -- -- 41
2020-06-21 11:00:00 24.5 5 Norte 11 Este 0 -- -- 40
2020-06-21 10:00:00 20.6 8 Este 19 Este 0 -- -- 43
2020-06-21 09:00:00 15.9 11 Este 22 Este 0 -- -- 51
2020-06-21 08:00:00 11.8 9 Sudeste 18 Este 0 -- -- 61
2020-06-21 07:00:00 10 3 Oeste 14 Sudeste 0 -- -- 66
2020-06-21 06:00:00 10.4 0 Calma 5 Nordeste 0 -- -- 65
2020-06-21 05:00:00 11.2 3 Este 9 Sur 0 -- -- 61
2020-06-21 04:00:00 12.2 2 Noroeste 9 Sur 0 -- -- 58
2020-06-21 03:00:00 13.7 0 Calma 9 Sudeste 0 -- -- 54
2020-06-21 02:00:00 14.8 2 Sur 13 Sudeste 0 -- -- 51
2020-06-21 01:00:00 16.3 9 Sudeste 14 Sudeste 0 -- -- 46
2020-06-21 00:00:00 17.6 2 Oeste 7 Sudeste 0 -- -- 43
2020-06-20 23:00:00 19.4 4 Sudeste 9 Sur 0 -- -- 39
2020-06-20 22:00:00 21.2 6 Oeste 11 Oeste 0 -- -- 35
2020-06-20 21:00:00 25.5 6 Oeste 17 Oeste 0 -- -- 29
2020-06-20 20:00:00 27.6 8 Oeste 25 Oeste 0 -- -- 25
2020-06-20 19:00:00 28 12 Noroeste 27 Noroeste 0 -- -- 24
2020-06-20 18:00:00 28.3 10 Noroeste 31 Noroeste 0 -- -- 25
2020-06-20 17:00:00 28 17 Noroeste 32 Oeste 0 -- -- 26
2020-06-20 16:00:00 28.2 12 Oeste 30 Oeste 0 -- -- 26
2020-06-20 15:00:00 27.3 15 Noroeste 34 Oeste 0 -- -- 28
2020-06-20 14:00:00 27.2 9 Oeste 30 Noroeste 0 -- -- 26
2020-06-20 13:00:00 26.1 9 Oeste 29 Oeste 0 -- -- 28
2020-06-20 12:00:00 25.5 15 Noroeste 26 Noroeste 0 -- -- 30
2020-06-20 11:00:00 23.9 9 Sudeste 16 Sudeste 0 -- -- 42
2020-06-20 10:00:00 20.7 11 Sudeste 19 Sudeste 0 -- -- 57
2020-06-20 09:00:00 16.6 8 Este 13 Sudeste 0 -- -- 71
2020-06-20 08:00:00 12.9 6 Sudeste 15 Este 0 -- -- 84
2020-06-20 07:00:00 12.6 12 Sudeste 20 Sudeste 0 -- -- 87
2020-06-20 06:00:00 13 7 Este 15 Este 0 -- -- 85
2020-06-20 05:00:00 14.1 8 Sudoeste 14 Sur 0 -- -- 83
2020-06-20 04:00:00 14.2 3 Sur 12 Sudoeste 0 -- -- 77
2020-06-20 03:00:00 15.1 4 Sudoeste 13 Sudoeste 0 -- -- 78
2020-06-20 02:00:00 16.3 10 Sudoeste 25 Sur 0 -- -- 81
2020-06-20 01:00:00 17 19 Sur 29 Sur 0 -- -- 81
2020-06-20 00:00:00 15.1 0 Calma 10 Noroeste 0 -- -- 72
2020-06-19 23:00:00 16.7 5 Oeste 10 Oeste 0 -- -- 66
2020-06-19 22:00:00 19.1 4 Noroeste 15 Oeste 0 -- -- 68
2020-06-19 21:00:00 23.1 11 Norte 24 Oeste 0 -- -- 54
2020-06-19 20:00:00 24.5 5 Oeste 21 Sudoeste 0 -- -- 34
2020-06-19 19:00:00 24.5 6 Sudoeste 26 Sudoeste 0 -- -- 35
2020-06-19 18:00:00 25.2 10 Sur 33 Sur 0 -- -- 36
2020-06-19 17:00:00 25.6 10 Sudoeste 31 Oeste 0 -- -- 34
2020-06-19 16:00:00 25.3 14 Sudoeste 39 Oeste 0 -- -- 36
2020-06-19 15:00:00 24 10 Noroeste 25 Oeste 0 -- -- 34
2020-06-19 14:00:00 22.4 6 Norte 27 Noroeste 0 -- -- 48
2020-06-19 13:00:00 24.2 12 Sudoeste 31 Sudoeste 0 -- -- 38
2020-06-19 12:00:00 22.6 18 Sudeste 37 Sudeste 0 -- -- 47
2020-06-19 11:00:00 21.4 17 Sudeste 30 Sudeste 0 -- -- 56
2020-06-19 10:00:00 19.4 10 Sudeste 28 Sur 0 -- -- 62
2020-06-19 09:00:00 17.2 17 Sur 33 Sur 0 -- -- 71
2020-06-19 08:00:00 15.7 15 Sur 27 Sur 0 -- -- 79
2020-06-19 07:00:00 14.7 11 Sur 23 Sudoeste 0 -- -- 83
2020-06-19 06:00:00 14.1 4 Sudeste 14 Sur 0 -- -- 86
2020-06-19 05:00:00 14.9 6 Sur 15 Sur 0 -- -- 84
2020-06-19 04:00:00 15.2 3 Sudeste 15 Sudeste 0 -- -- 83
2020-06-19 03:00:00 15.1 6 Sudeste 15 Sudeste 0 -- -- 85
2020-06-19 02:00:00 15.2 2 Este 9 Sudeste 0 -- -- 86
2020-06-19 01:00:00 14.7 4 Noroeste 8 Noroeste 0 -- -- 89
2020-06-19 00:00:00 15.5 3 Noroeste 13 Norte 0 -- -- 86
2020-06-18 23:00:00 15.6 9 Norte 18 Norte 0 -- -- 86
2020-06-18 22:00:00 16.6 9 Norte 18 Norte 0 -- -- 81
2020-06-18 21:00:00 19 8 Norte 17 Nordeste 0 -- -- 69
2020-06-18 20:00:00 20.6 5 Sudeste 33 Sudeste 0 -- -- 60
2020-06-18 19:00:00 24.3 9 Oeste 31 Oeste 0 -- -- 33
2020-06-18 18:00:00 23.6 10 Sudoeste 26 Oeste 0 -- -- 34
2020-06-18 17:00:00 23.9 6 Oeste 26 Noroeste 0 -- -- 32
2020-06-18 16:00:00 23.6 7 Sur 34 Sur 0 -- -- 32
2020-06-18 15:00:00 24 11 Sudoeste 31 Sudoeste 0 -- -- 31
2020-06-18 14:00:00 23.8 8 Noroeste 24 Sudoeste 0 -- -- 36
2020-06-18 13:00:00 22.2 8 Oeste 19 Oeste 0 -- -- 39
2020-06-18 12:00:00 21.5 14 Noroeste 27 Noroeste 0 -- -- 38
2020-06-18 11:00:00 20.1 12 Sur 28 Sur 0 -- -- 42
2020-06-18 10:00:00 17.8 8 Este 21 Sudeste 0 -- -- 65
2020-06-18 09:00:00 15.4 5 Este 15 Sudoeste 0 -- -- 75
2020-06-18 08:00:00 12.4 4 Sudeste 8 Sudoeste 0 -- -- 88
2020-06-18 07:00:00 12.2 3 Noroeste 18 Sur 0 -- -- 85
2020-06-18 06:00:00 12.8 14 Sur 22 Sur 0 -- -- 85
2020-06-18 05:00:00 12.8 9 Sur 13 Sur 0 -- -- 84
2020-06-18 04:00:00 13.2 6 Sur 13 Sur 0 -- -- 83
2020-06-18 03:00:00 13.3 0 Calma 4 Oeste 0 -- -- 86
2020-06-18 02:00:00 13.5 0 Calma 7 Noroeste 0 -- -- 86
2020-06-18 01:00:00 13.3 3 Oeste 6 Noroeste 0 -- -- 87
2020-06-18 00:00:00 13.7 4 Noroeste 14 Noroeste 0 -- -- 86
2020-06-17 23:00:00 14.9 4 Noroeste 18 Nordeste 0 -- -- 80
2020-06-17 22:00:00 16.1 6 Norte 14 Norte 0 -- -- 62
2020-06-17 21:00:00 17.4 7 Noroeste 19 Noroeste 0 -- -- 53
2020-06-17 20:00:00 18.2 12 Noroeste 19 Noroeste 0 -- -- 50
2020-06-17 19:00:00 18.4 9 Noroeste 18 Noroeste 0 -- -- 50
2020-06-17 18:00:00 19.2 7 Norte 19 Nordeste 0 -- -- 49
2020-06-17 17:00:00 19.2 5 Norte 19 Este 0 -- -- 48
2020-06-17 16:00:00 19.1 11 Norte 21 Norte 0 -- -- 50
2020-06-17 15:00:00 17.9 6 Norte 17 Norte 0 -- -- 51
2020-06-17 14:00:00 17.5 6 Norte 21 Oeste 0 -- -- 55
2020-06-17 13:00:00 16.9 6 Nordeste 17 Nordeste 0 -- -- 60
2020-06-17 12:00:00 16.3 6 Norte 18 Norte 0 -- -- 62
2020-06-17 11:00:00 15.4 9 Norte 18 Norte 0 -- -- 69
2020-06-17 10:00:00 13.4 8 Norte 15 Norte 0 -- -- 79
2020-06-17 09:00:00 11.1 3 Este 10 Sudeste 0 -- -- 85
2020-06-17 08:00:00 10.2 8 Sudeste 14 Sudeste 0 -- -- 88
2020-06-17 07:00:00 9 8 Sudeste 18 Sudeste 0 -- -- 91
2020-06-17 06:00:00 8.5 3 Sudoeste 7 Sudeste 0 -- -- 93
2020-06-17 05:00:00 9.1 3 Sur 6 Sur 0 -- -- 92
2020-06-17 04:00:00 10.7 0 Calma 8 Sur 0 -- -- 90
2020-06-17 03:00:00 11 0 Calma 13 Norte 0 -- -- 89
2020-06-17 02:00:00 12.2 9 Noroeste 14 Noroeste 0 -- -- 86
2020-06-17 01:00:00 12.6 2 Sudeste 7 Sur 0 -- -- 88
2020-06-17 00:00:00 12.9 3 Noroeste 7 Oeste 0.2 -- -- 85
2020-06-16 23:00:00 13.7 5 Nordeste 27 Norte 0 -- -- 73
2020-06-16 22:00:00 15.3 4 Noroeste 15 Oeste 0 -- -- 57
2020-06-16 21:00:00 18.5 9 Oeste 27 Oeste 0 -- -- 43
2020-06-16 20:00:00 19.9 9 Sudoeste 24 Oeste 0 -- -- 44
2020-06-16 19:00:00 21.2 11 Oeste 32 Oeste 0 -- -- 42
2020-06-16 18:00:00 20.1 12 Oeste 26 Oeste 0 -- -- 46
2020-06-16 17:00:00 18.8 6 Este 15 Sudeste 0 -- -- 62
2020-06-16 16:00:00 16.4 3 Norte 10 Sudeste 1.4 -- -- 74
2020-06-16 15:00:00 16.1 5 Nordeste 14 Norte 0.2 -- -- 73
2020-06-16 14:00:00 14.5 7 Norte 19 Norte 0 -- -- 77
2020-06-16 13:00:00 14.3 9 Norte 21 Norte 0 -- -- 78
2020-06-16 12:00:00 14.6 10 Norte 28 Norte 0 -- -- 76
2020-06-16 11:00:00 16.9 8 Norte 14 Noroeste 0 -- -- 68
2020-06-16 10:00:00 15.4 3 Noroeste 13 Este 0 -- -- 72
2020-06-16 09:00:00 11.8 4 Sudeste 9 Este 0 -- -- 71
2020-06-16 08:00:00 9.9 0 Calma 6 Oeste 0 -- -- 76
2020-06-16 07:00:00 8.6 3 Sudoeste 9 Sudeste 0 -- -- 82
2020-06-16 06:00:00 9.2 2 Oeste 5 Este 0 -- -- 79
2020-06-16 05:00:00 10 2 Sur 8 Este 0 -- -- 74
2020-06-16 04:00:00 10.8 3 Oeste 9 Este 0 -- -- 73
2020-06-16 03:00:00 11.2 2 Sur 8 Sudeste 0 -- -- 72
2020-06-16 02:00:00 12.3 0 Calma 5 Oeste 0 -- -- 75
2020-06-16 01:00:00 13.6 3 Sudoeste 6 Oeste 0 -- -- 71
2020-06-16 00:00:00 14.6 7 Oeste 10 Oeste 0 -- -- 66
2020-06-15 23:00:00 17.4 6 Norte 20 Noroeste 0 -- -- 59
2020-06-15 22:00:00 19.3 0 Calma 15 Oeste 0 -- -- 33
2020-06-15 21:00:00 21.5 10 Oeste 22 Oeste 0 -- -- 31
2020-06-15 20:00:00 23.5 6 Sudoeste 21 Sudoeste 0 -- -- 32
2020-06-15 19:00:00 24 10 Sudoeste 29 Sudoeste 0 -- -- 30
2020-06-15 18:00:00 24.7 12 Oeste 28 Noroeste 0 -- -- 29
2020-06-15 17:00:00 25 8 Sudoeste 23 Oeste 0 -- -- 30
2020-06-15 16:00:00 23.6 11 Sur 28 Sudeste 0 -- -- 33
2020-06-15 15:00:00 24.2 10 Sur 40 Sudoeste 0 -- -- 31
2020-06-15 14:00:00 22.2 5 Noroeste 28 Nordeste 0 -- -- 36
2020-06-15 13:00:00 21.4 6 Nordeste 20 Nordeste 0 -- -- 46
2020-06-15 12:00:00 20.3 8 Norte 20 Nordeste 0 -- -- 50
2020-06-15 11:00:00 18.9 4 Este 11 Norte 0 -- -- 54
2020-06-15 10:00:00 15.7 3 Este 12 Sudeste 0 -- -- 62
2020-06-15 09:00:00 10.7 5 Este 14 Sudeste 0 -- -- 76
2020-06-15 08:00:00 8.8 3 Sudeste 14 Sudeste 0 -- -- 82
2020-06-15 07:00:00 8.1 2 Sudeste 9 Sudeste 0 -- -- 82
2020-06-15 06:00:00 8.7 0 Calma 7 Este 0 -- -- 80
2020-06-15 05:00:00 9.6 3 Sudeste 7 Sudeste 0 -- -- 77
2020-06-15 04:00:00 10.8 0 Calma 9 Sudeste 0 -- -- 73
2020-06-15 03:00:00 11.2 3 Oeste 8 Sudeste 0 -- -- 72
2020-06-15 02:00:00 12.6 0 Calma 7 Oeste 0 -- -- 65
2020-06-15 01:00:00 14 3 Sur 8 Sur 0 -- -- 60
2020-06-15 00:00:00 15.2 3 Este 11 Sudeste 0 -- -- 55
2020-06-14 23:00:00 16.1 0 Calma 13 Oeste 0 -- -- 51
2020-06-14 22:00:00 17.2 8 Oeste 17 Oeste 0 -- -- 48
2020-06-14 21:00:00 19.6 11 Oeste 21 Oeste 0 -- -- 42
2020-06-14 20:00:00 20.9 9 Oeste 22 Noroeste 0 -- -- 39
2020-06-14 19:00:00 22.4 12 Oeste 26 Oeste 0 -- -- 35
2020-06-14 18:00:00 22.8 10 Oeste 36 Oeste 0 -- -- 34
2020-06-14 17:00:00 22.4 10 Oeste 34 Sudoeste 0 -- -- 34
2020-06-14 16:00:00 21.6 11 Oeste 36 Noroeste 0 -- -- 36
2020-06-14 15:00:00 21.9 11 Sudoeste 27 Sudoeste 0 -- -- 37
2020-06-14 14:00:00 20.9 12 Sur 26 Sudoeste 0 -- -- 38
2020-06-14 13:00:00 20.6 15 Sur 28 Sur 0 -- -- 38
2020-06-14 12:00:00 19.8 10 Sudoeste 28 Sudoeste 0 -- -- 40
2020-06-14 11:00:00 18.6 13 Sudoeste 41 Sudoeste 0 -- -- 44
2020-06-14 10:00:00 14.8 8 Este 18 Sudeste 0 -- -- 58
2020-06-14 09:00:00 9.4 10 Sudeste 14 Sudeste 0 -- -- 72
2020-06-14 08:00:00 7.5 3 Noroeste 13 Este 0 -- -- 79
2020-06-14 07:00:00 6.8 3 Noroeste 14 Este 0 -- -- 78
2020-06-14 06:00:00 7.1 9 Sudeste 18 Sudeste 0 -- -- 75
2020-06-14 05:00:00 6.8 6 Sudeste 13 Sudeste 0 -- -- 77
2020-06-14 04:00:00 7.4 2 Sur 12 Sur 0 -- -- 74
2020-06-14 03:00:00 8.4 9 Sudeste 20 Este 0 -- -- 70
2020-06-14 02:00:00 9.5 9 Sudeste 18 Sudeste 0 -- -- 67
2020-06-14 01:00:00 10.4 10 Sudeste 17 Sudeste 0 -- -- 63
2020-06-14 00:00:00 11.6 4 Sur 12 Este 0 -- -- 59
2020-06-13 23:00:00 13.5 6 Sudoeste 12 Sudoeste 0 -- -- 51
2020-06-13 22:00:00 14.5 8 Sudoeste 14 Sudoeste 0 -- -- 49
2020-06-13 21:00:00 17.1 6 Oeste 22 Oeste 0 -- -- 40
2020-06-13 20:00:00 18.8 10 Oeste 25 Noroeste 0 -- -- 37
2020-06-13 19:00:00 19.5 14 Oeste 34 Noroeste 0 -- -- 35
2020-06-13 18:00:00 19.6 14 Oeste 28 Oeste 0 -- -- 34
2020-06-13 17:00:00 20.2 11 Oeste 30 Sudoeste 0 -- -- 35
2020-06-13 16:00:00 19.4 9 Noroeste 30 Oeste 0 -- -- 38
2020-06-13 15:00:00 19.2 11 Oeste 30 Sudoeste 0 -- -- 36
2020-06-13 14:00:00 17.7 12 Sudoeste 26 Sur 0 -- -- 39
2020-06-13 13:00:00 16.3 12 Sudoeste 30 Oeste 0 -- -- 43
2020-06-13 12:00:00 15.6 14 Oeste 27 Oeste 0 -- -- 49
2020-06-13 11:00:00 14.1 10 Oeste 30 Oeste 0 -- -- 53
2020-06-13 10:00:00 12.8 19 Oeste 39 Noroeste 0 -- -- 56
2020-06-13 09:00:00 11.4 15 Noroeste 31 Oeste 0 -- -- 63
2020-06-13 08:00:00 9.9 4 Norte 14 Oeste 0 -- -- 71
2020-06-13 07:00:00 8.7 3 Noroeste 21 Sudoeste 0 -- -- 74
2020-06-13 06:00:00 9.2 7 Oeste 20 Sudoeste 0 -- -- 73
2020-06-13 05:00:00 8.8 5 Sudoeste 13 Oeste 0 -- -- 75
2020-06-13 04:00:00 7.7 8 Sudoeste 11 Sudoeste 0 -- -- 77
2020-06-13 03:00:00 8.5 4 Sudoeste 19 Sudoeste 0 -- -- 72
2020-06-13 02:00:00 10.2 14 Oeste 33 Sudoeste 0 -- -- 65
2020-06-13 01:00:00 10.4 4 Oeste 7 Oeste 0 -- -- 67
2020-06-13 00:00:00 11.1 4 Oeste 8 Noroeste 0 -- -- 63
2020-06-12 23:00:00 11.3 5 Oeste 9 Sur 0 -- -- 61
2020-06-12 22:00:00 13.6 0 Calma 19 Sudoeste 0 -- -- 49
2020-06-12 21:00:00 14.8 9 Sudoeste 30 Sudoeste 0 -- -- 46
2020-06-12 20:00:00 15.9 9 Sudoeste 31 Sudoeste 0 -- -- 45
2020-06-12 19:00:00 16.6 10 Sur 35 Sudoeste 0 -- -- 41
2020-06-12 18:00:00 16.6 16 Sur 37 Sudoeste 0 -- -- 40
2020-06-12 17:00:00 17.6 18 Sudoeste 34 Sudoeste 0 -- -- 40
2020-06-12 16:00:00 17.6 18 Sur 43 Sur 0 -- -- 40
2020-06-12 15:00:00 17.1 19 Sudoeste 35 Sudoeste 0 -- -- 41
2020-06-12 14:00:00 17.3 14 Sudoeste 31 Sur 0 -- -- 40
2020-06-12 13:00:00 15.3 18 Sur 33 Sur 0 -- -- 45
2020-06-12 12:00:00 14.3 11 Oeste 28 Sudoeste 0 -- -- 48
2020-06-12 11:00:00 13.1 11 Oeste 31 Oeste 0 -- -- 51
2020-06-12 10:00:00 11.9 15 Oeste 31 Oeste 0 -- -- 53
2020-06-12 09:00:00 11.6 13 Sudoeste 33 Oeste 0 -- -- 56
2020-06-12 08:00:00 10.5 13 Sudoeste 28 Sudoeste 0 -- -- 59
2020-06-12 07:00:00 9.5 10 Sudoeste 23 Sudeste 0 -- -- 63
2020-06-12 06:00:00 10.1 11 Sur 27 Sudoeste 0 -- -- 61
2020-06-12 05:00:00 11.2 10 Sudoeste 27 Sudoeste 0 -- -- 62
2020-06-12 04:00:00 11.8 12 Oeste 25 Sudoeste 0 -- -- 64
2020-06-12 03:00:00 13.1 6 Sudoeste 22 Sudoeste 0 -- -- 63
2020-06-12 02:00:00 14.6 9 Sur 22 Sur 0 -- -- 59
2020-06-12 01:00:00 15.2 10 Sudoeste 39 Sur 0 -- -- 56
2020-06-12 00:00:00 16.3 9 Sudoeste 25 Sudoeste 0 -- -- 51
2020-06-11 23:00:00 16.5 6 Sudoeste 22 Sudoeste 0 -- -- 51
2020-06-11 22:00:00 17.2 6 Sudoeste 20 Sur 0 -- -- 49
2020-06-11 21:00:00 18.4 8 Sudoeste 27 Sur 0 -- -- 46
2020-06-11 20:00:00 19 12 Sudoeste 31 Sur 0 -- -- 45
2020-06-11 19:00:00 20.3 10 Sudoeste 40 Oeste 0 -- -- 41
2020-06-11 18:00:00 22.1 15 Oeste 37 Oeste 0 -- -- 36
2020-06-11 17:00:00 21.2 14 Sur 36 Sur 0 -- -- 32
2020-06-11 16:00:00 22 17 Sudoeste 39 Sur 0 -- -- 32
2020-06-11 15:00:00 21.2 20 Sudoeste 38 Oeste 0 -- -- 36
2020-06-11 14:00:00 20.9 16 Sudoeste 37 Sudoeste 0 -- -- 37
2020-06-11 13:00:00 20.2 19 Sudoeste 41 Sudoeste 0 -- -- 36
2020-06-11 12:00:00 18.9 15 Sur 34 Sudoeste 0 -- -- 39
2020-06-11 11:00:00 18.4 13 Sudoeste 31 Sur 0 -- -- 38
2020-06-11 10:00:00 16.5 8 Sudoeste 25 Sudoeste 0 -- -- 54
2020-06-11 09:00:00 14.7 9 Sudoeste 22 Sudoeste 0 -- -- 54
2020-06-11 08:00:00 11.3 3 Sudeste 9 Oeste 0 -- -- 71
2020-06-11 07:00:00 10.9 9 Oeste 17 Sudoeste 0 -- -- 73
2020-06-11 06:00:00 11.8 11 Sudoeste 14 Sudoeste 0 -- -- 72
2020-06-11 05:00:00 13.2 9 Sudoeste 17 Sudoeste 0 -- -- 66
2020-06-11 04:00:00 13.5 10 Sudoeste 19 Sudoeste 0 -- -- 64
2020-06-11 03:00:00 13.2 7 Sur 13 Sur 0 -- -- 64
2020-06-11 02:00:00 13.6 6 Sur 12 Sudoeste 0 -- -- 64
2020-06-11 01:00:00 13.8 0 Calma 7 Sur 0 -- -- 63
2020-06-11 00:00:00 14.3 2 Oeste 6 Sudeste 0 -- -- 61